createdAt,value
2017-11-25T00:00:45.853Z,0
2017-11-25T00:01:55.204Z,0
2017-11-25T00:03:03.742Z,0
2017-11-25T00:04:12.547Z,0
2017-11-25T00:05:21.353Z,0
2017-11-25T00:06:29.891Z,0
2017-11-25T00:07:39.257Z,0
2017-11-25T00:08:48.066Z,0
2017-11-25T00:09:56.882Z,0
2017-11-25T00:11:05.973Z,0
2017-11-25T00:12:14.794Z,0
2017-11-25T00:13:23.605Z,0
2017-11-25T00:14:32.688Z,0
2017-11-25T00:15:41.504Z,0
2017-11-25T00:16:50.676Z,0
2017-11-25T00:17:59.502Z,0
2017-11-25T00:19:08.317Z,0
2017-11-25T00:20:17.132Z,0
2017-11-25T00:21:26.221Z,0
2017-11-25T00:22:35.040Z,0
2017-11-25T00:23:43.850Z,0
2017-11-25T00:24:52.667Z,0
2017-11-25T00:26:01.760Z,0
2017-11-25T00:27:10.841Z,0
2017-11-25T00:28:19.934Z,0
2017-11-25T00:29:28.739Z,0
2017-11-25T00:30:37.547Z,0
2017-11-25T00:31:46.358Z,0
2017-11-25T00:32:54.905Z,0
2017-11-25T00:34:03.713Z,0
2017-11-25T00:35:12.818Z,0
2017-11-25T00:36:21.916Z,0
2017-11-25T00:37:30.722Z,0
2017-11-25T00:38:39.529Z,0
2017-11-25T00:39:48.343Z,0
2017-11-25T00:40:57.423Z,0
2017-11-25T00:42:06.234Z,0
2017-11-25T00:43:14.773Z,0
2017-11-25T00:44:23.586Z,0
2017-11-25T00:45:32.943Z,0
2017-11-25T00:46:41.482Z,0
2017-11-25T00:47:50.018Z,0
2017-11-25T00:48:58.832Z,0
2017-11-25T00:50:07.645Z,0
2017-11-25T00:51:16.452Z,0
2017-11-25T00:52:25.258Z,0
2017-11-25T00:53:34.068Z,0
2017-11-25T00:54:42.882Z,0
2017-11-25T00:55:51.422Z,0
2017-11-25T00:56:59.959Z,0
2017-11-25T00:58:08.498Z,0
2017-11-25T00:59:17.309Z,0
2017-11-25T01:00:25.845Z,0
2017-11-25T01:01:34.928Z,0
2017-11-25T01:02:43.740Z,0
2017-11-25T01:03:52.280Z,0
2017-11-25T01:05:01.358Z,0
2017-11-25T01:06:09.896Z,0
2017-11-25T01:07:18.986Z,0
2017-11-25T01:08:27.794Z,0
2017-11-25T01:09:36.603Z,0
2017-11-25T01:10:45.409Z,0
2017-11-25T01:11:53.946Z,0
2017-11-25T01:13:03.037Z,0
2017-11-25T01:14:11.850Z,0
2017-11-25T01:15:21.219Z,0
2017-11-25T01:16:30.028Z,0
2017-11-25T01:17:38.565Z,0
2017-11-25T01:18:47.105Z,0
2017-11-25T01:19:55.915Z,0
2017-11-25T01:21:04.997Z,0
2017-11-25T01:22:13.539Z,0
2017-11-25T01:23:22.360Z,0
2017-11-25T01:24:31.164Z,0
2017-11-25T01:25:39.991Z,0
2017-11-25T01:26:49.361Z,0
2017-11-25T01:27:58.178Z,0
2017-11-25T01:29:06.990Z,0
2017-11-25T01:30:16.078Z,0
2017-11-25T01:31:24.612Z,0
2017-11-25T01:32:33.162Z,0
2017-11-25T01:33:41.966Z,0
2017-11-25T01:34:51.041Z,0
2017-11-25T01:35:59.863Z,0
2017-11-25T01:37:08.401Z,0
2017-11-25T01:38:16.944Z,0
2017-11-25T01:39:26.298Z,0
2017-11-25T01:40:35.124Z,0
2017-11-25T01:41:43.936Z,0
2017-11-25T01:42:52.746Z,0
2017-11-25T01:44:01.282Z,0
2017-11-25T01:45:10.104Z,0
2017-11-25T01:46:18.645Z,0
2017-11-25T01:47:27.185Z,0
2017-11-25T01:48:36.263Z,0
2017-11-25T01:49:45.073Z,0
2017-11-25T01:50:53.879Z,0
2017-11-25T01:52:02.417Z,0
2017-11-25T01:53:11.497Z,0
2017-11-25T01:54:20.306Z,0
2017-11-25T01:55:28.842Z,0
2017-11-25T01:56:37.917Z,0
2017-11-25T01:57:46.459Z,0
2017-11-25T01:58:55.539Z,0
2017-11-25T02:00:04.621Z,0
2017-11-25T02:01:13.161Z,0
2017-11-25T02:02:22.526Z,0
2017-11-25T02:03:31.065Z,0
2017-11-25T02:04:40.141Z,0
2017-11-25T02:05:48.963Z,0
2017-11-25T02:06:57.488Z,0
2017-11-25T02:08:06.025Z,0
2017-11-25T02:09:14.566Z,0
2017-11-25T02:10:23.646Z,0
2017-11-25T02:11:32.457Z,0
2017-11-25T02:12:40.993Z,0
2017-11-25T02:13:49.808Z,0
2017-11-25T02:14:58.627Z,0
2017-11-25T02:16:07.163Z,0
2017-11-25T02:17:16.248Z,0
2017-11-25T02:18:24.788Z,0
2017-11-25T02:19:33.873Z,0
2017-11-25T02:20:42.960Z,0
2017-11-25T02:21:51.497Z,0
2017-11-25T02:23:00.307Z,0
2017-11-25T02:24:08.847Z,0
2017-11-25T02:25:17.387Z,0
2017-11-25T02:26:26.471Z,0
2017-11-25T02:27:35.013Z,0
2017-11-25T02:28:43.828Z,0
2017-11-25T02:29:52.646Z,0
2017-11-25T02:31:01.770Z,0
2017-11-25T02:32:10.309Z,0
2017-11-25T02:33:19.123Z,0
2017-11-25T02:34:27.659Z,0
2017-11-25T02:35:37.020Z,0
2017-11-25T02:36:46.113Z,0
2017-11-25T02:37:54.653Z,0
2017-11-25T02:39:03.196Z,0
2017-11-25T02:40:12.016Z,0
2017-11-25T02:41:20.822Z,0
2017-11-25T02:42:29.632Z,0
2017-11-25T02:43:38.172Z,0
2017-11-25T02:44:46.708Z,0
2017-11-25T02:45:55.787Z,0
2017-11-25T02:47:04.337Z,0
2017-11-25T02:48:13.440Z,0
2017-11-25T02:49:21.974Z,0
2017-11-25T02:50:30.514Z,0
2017-11-25T02:51:39.053Z,0
2017-11-25T02:52:47.866Z,0
2017-11-25T02:53:56.699Z,0
2017-11-25T02:55:05.773Z,0
2017-11-25T02:56:14.311Z,0
2017-11-25T02:57:23.123Z,0
2017-11-25T02:58:31.934Z,0
2017-11-25T02:59:41.283Z,0
2017-11-25T03:00:49.823Z,0
2017-11-25T03:01:58.358Z,0
2017-11-25T03:03:07.169Z,0
2017-11-25T03:04:15.709Z,0
2017-11-25T03:05:24.531Z,0
2017-11-25T03:06:33.057Z,0
2017-11-25T03:07:41.596Z,0
2017-11-25T03:08:50.405Z,0
2017-11-25T03:09:59.499Z,0
2017-11-25T03:11:08.845Z,0
2017-11-25T03:12:17.693Z,0
2017-11-25T03:13:26.205Z,0
2017-11-25T03:14:35.013Z,0
2017-11-25T03:15:43.858Z,0
2017-11-25T03:16:52.688Z,0
2017-11-25T03:18:01.225Z,0
2017-11-25T03:19:10.033Z,0
2017-11-25T03:20:19.112Z,0
2017-11-25T03:21:27.650Z,0
2017-11-25T03:22:36.463Z,0
2017-11-25T03:23:45.278Z,0
2017-11-25T03:24:53.817Z,0
2017-11-25T03:26:02.628Z,0
2017-11-25T03:27:11.164Z,0
2017-11-25T03:28:19.974Z,0
2017-11-25T03:29:28.516Z,0
2017-11-25T03:30:37.330Z,0
2017-11-25T03:31:46.683Z,0
2017-11-25T03:32:55.778Z,0
2017-11-25T03:34:04.590Z,0
2017-11-25T03:35:13.403Z,0
2017-11-25T03:36:22.212Z,0
2017-11-25T03:37:31.022Z,0
2017-11-25T03:38:40.100Z,0
2017-11-25T03:39:48.913Z,0
2017-11-25T03:40:57.728Z,0
2017-11-25T03:42:06.267Z,0
2017-11-25T03:43:15.080Z,0
2017-11-25T03:44:23.889Z,0
2017-11-25T03:45:32.969Z,0
2017-11-25T03:46:42.052Z,0
2017-11-25T03:47:50.861Z,0
2017-11-25T03:48:59.406Z,0
2017-11-25T03:50:07.939Z,0
2017-11-25T03:51:16.751Z,0
2017-11-25T03:52:25.564Z,0
2017-11-25T03:53:34.092Z,0
2017-11-25T03:54:42.633Z,0
2017-11-25T03:55:51.458Z,0
2017-11-25T03:57:00.266Z,0
2017-11-25T03:58:09.070Z,0
2017-11-25T03:59:18.149Z,0
2017-11-25T04:00:26.959Z,0
2017-11-25T04:01:35.770Z,0
2017-11-25T04:02:44.579Z,0
2017-11-25T04:03:53.391Z,0
2017-11-25T04:05:02.479Z,0
2017-11-25T04:06:11.287Z,0
2017-11-25T04:07:20.382Z,0
2017-11-25T04:08:28.909Z,0
2017-11-25T04:09:37.720Z,0
2017-11-25T04:10:46.258Z,0
2017-11-25T04:11:55.068Z,0
2017-11-25T04:13:04.150Z,0
2017-11-25T04:14:12.693Z,0
2017-11-25T04:15:21.234Z,0
2017-11-25T04:16:30.056Z,0
2017-11-25T04:17:38.858Z,0
2017-11-25T04:18:47.397Z,0
2017-11-25T04:19:56.208Z,0
2017-11-25T04:21:05.572Z,0
2017-11-25T04:22:14.109Z,0
2017-11-25T04:23:22.929Z,0
2017-11-25T04:24:32.691Z,0
2017-11-25T04:25:41.776Z,0
2017-11-25T04:26:50.322Z,0
2017-11-25T04:27:59.677Z,0
2017-11-25T04:29:08.489Z,0
2017-11-25T04:30:17.027Z,0
2017-11-25T04:31:25.564Z,0
2017-11-25T04:32:34.392Z,0
2017-11-25T04:33:42.912Z,0
2017-11-25T04:34:51.729Z,0
2017-11-25T04:36:00.807Z,0
2017-11-25T04:37:09.343Z,0
2017-11-25T04:38:18.427Z,0
2017-11-25T04:39:27.238Z,0
2017-11-25T04:40:36.049Z,0
2017-11-25T04:41:44.589Z,0
2017-11-25T04:42:53.125Z,0
2017-11-25T04:44:01.933Z,0
2017-11-25T04:45:10.743Z,0
2017-11-25T04:46:19.555Z,0
2017-11-25T04:47:28.094Z,0
2017-11-25T04:48:36.633Z,0
2017-11-25T04:49:45.438Z,0
2017-11-25T04:50:54.252Z,0
2017-11-25T04:52:02.790Z,0
2017-11-25T04:53:11.609Z,0
2017-11-25T04:54:20.155Z,0
2017-11-25T04:55:28.684Z,0
2017-11-25T04:56:37.504Z,0
2017-11-25T04:57:46.040Z,0
2017-11-25T04:58:54.608Z,0
2017-11-25T05:00:03.432Z,0
2017-11-25T05:01:12.861Z,0
2017-11-25T05:02:21.967Z,0
2017-11-25T05:03:30.785Z,0
2017-11-25T05:04:39.597Z,0
2017-11-25T05:05:48.405Z,0
2017-11-25T05:06:57.214Z,0
2017-11-25T05:08:06.571Z,0
2017-11-25T05:09:15.660Z,0
2017-11-25T05:10:24.195Z,0
2017-11-25T05:11:33.281Z,0
2017-11-25T05:12:42.088Z,0
2017-11-25T05:13:51.177Z,0
2017-11-25T05:14:59.989Z,0
2017-11-25T05:16:08.805Z,0
2017-11-25T05:17:17.887Z,0
2017-11-25T05:18:26.425Z,0
2017-11-25T05:19:35.236Z,0
2017-11-25T05:20:44.313Z,0
2017-11-25T05:21:53.121Z,0
2017-11-25T05:23:01.929Z,0
2017-11-25T05:24:10.738Z,0
2017-11-25T05:25:19.545Z,0
2017-11-25T05:26:28.357Z,0
2017-11-25T05:27:36.895Z,0
2017-11-25T05:28:45.983Z,0
2017-11-25T05:29:54.799Z,0
2017-11-25T05:31:04.160Z,0
2017-11-25T05:32:12.966Z,0
2017-11-25T05:33:21.504Z,0
2017-11-25T05:34:30.047Z,0
2017-11-25T05:35:38.857Z,0
2017-11-25T05:36:47.393Z,0
2017-11-25T05:37:55.930Z,0
2017-11-25T05:39:04.737Z,0
2017-11-25T05:40:13.278Z,0
2017-11-25T05:41:22.086Z,0
2017-11-25T05:42:30.629Z,0
2017-11-25T05:43:39.439Z,0
2017-11-25T05:44:48.530Z,0
2017-11-25T05:45:57.335Z,0
2017-11-25T05:47:05.869Z,0
2017-11-25T05:48:14.681Z,0
2017-11-25T05:49:23.768Z,0
2017-11-25T05:50:32.576Z,0
2017-11-25T05:51:41.115Z,0
2017-11-25T05:52:50.466Z,0
2017-11-25T05:53:59.278Z,0
2017-11-25T05:55:07.817Z,0
2017-11-25T05:56:16.622Z,0
2017-11-25T05:57:25.436Z,0
2017-11-25T05:58:34.533Z,0
2017-11-25T05:59:43.353Z,0
2017-11-25T06:00:52.446Z,0
2017-11-25T06:02:01.255Z,0
2017-11-25T06:03:10.069Z,0
2017-11-25T06:04:18.882Z,0
2017-11-25T06:05:27.417Z,0
2017-11-25T06:06:36.235Z,0
2017-11-25T06:07:45.045Z,0
2017-11-25T06:08:54.413Z,0
2017-11-25T06:10:02.952Z,0
2017-11-25T06:11:11.768Z,0
2017-11-25T06:12:20.576Z,0
2017-11-25T06:13:29.942Z,0
2017-11-25T06:14:38.479Z,0
2017-11-25T06:15:47.306Z,0
2017-11-25T06:16:56.127Z,0
2017-11-25T06:18:04.660Z,0
2017-11-25T06:19:13.482Z,0
2017-11-25T06:20:22.842Z,0
2017-11-25T06:21:31.379Z,0
2017-11-25T06:22:40.189Z,0
2017-11-25T06:23:48.725Z,0
2017-11-25T06:24:57.544Z,0
2017-11-25T06:26:06.357Z,0
2017-11-25T06:27:15.174Z,0
2017-11-25T06:28:23.980Z,0
2017-11-25T06:29:32.515Z,0
2017-11-25T06:30:41.052Z,0
2017-11-25T06:31:49.592Z,0
2017-11-25T06:32:58.130Z,0
2017-11-25T06:34:06.672Z,0
2017-11-25T06:35:15.206Z,0
2017-11-25T06:36:24.009Z,0
2017-11-25T06:37:32.818Z,0
2017-11-25T06:38:41.625Z,0
2017-11-25T06:39:50.433Z,0
2017-11-25T06:40:59.511Z,0
2017-11-25T06:42:08.592Z,0
2017-11-25T06:43:17.130Z,0
2017-11-25T06:44:25.940Z,0
2017-11-25T06:45:34.755Z,0
2017-11-25T06:46:43.569Z,0
2017-11-25T06:47:52.382Z,0
2017-11-25T06:49:01.466Z,0
2017-11-25T06:50:10.004Z,0
2017-11-25T06:51:18.541Z,0
2017-11-25T06:52:27.358Z,0
2017-11-25T06:53:36.565Z,0
2017-11-25T06:54:45.383Z,0
2017-11-25T06:55:54.732Z,0
2017-11-25T06:57:03.813Z,0
2017-11-25T06:58:12.618Z,0
2017-11-25T06:59:21.779Z,0
2017-11-25T07:00:30.590Z,0
2017-11-25T07:01:39.399Z,0
2017-11-25T07:02:48.210Z,0
2017-11-25T07:03:57.343Z,0
2017-11-25T07:05:05.882Z,0
2017-11-25T07:06:14.698Z,0
2017-11-25T07:07:23.510Z,0
2017-11-25T07:08:32.046Z,5
2017-11-25T07:09:41.133Z,5
2017-11-25T07:10:49.953Z,5
2017-11-25T07:11:59.069Z,5
2017-11-25T07:13:07.884Z,5
2017-11-25T07:14:16.969Z,5
2017-11-25T07:15:26.056Z,5
2017-11-25T07:16:34.633Z,5
2017-11-25T07:17:43.130Z,5
2017-11-25T07:18:51.943Z,5
2017-11-25T07:20:00.757Z,5
2017-11-25T07:21:09.295Z,10
2017-11-25T07:22:18.104Z,10
2017-11-25T07:23:26.919Z,10
2017-11-25T07:24:36.001Z,10
2017-11-25T07:25:44.540Z,10
2017-11-25T07:26:53.346Z,10
2017-11-25T07:28:01.883Z,10
2017-11-25T07:29:10.697Z,10
2017-11-25T07:30:19.509Z,15
2017-11-25T07:31:28.050Z,15
2017-11-25T07:32:36.955Z,15
2017-11-25T07:33:46.038Z,15
2017-11-25T07:34:55.124Z,20
2017-11-25T07:36:04.483Z,20
2017-11-25T07:37:13.299Z,20
2017-11-25T07:38:21.835Z,25
2017-11-25T07:39:30.383Z,25
2017-11-25T07:40:39.194Z,25
2017-11-25T07:41:48.276Z,30
2017-11-25T07:42:56.814Z,30
2017-11-25T07:44:05.619Z,30
2017-11-25T07:45:14.455Z,30
2017-11-25T07:46:23.535Z,30
2017-11-25T07:47:32.354Z,35
2017-11-25T07:48:40.885Z,35
2017-11-25T07:49:49.420Z,35
2017-11-25T07:50:58.238Z,35
2017-11-25T07:52:07.046Z,35
2017-11-25T07:53:16.404Z,35
2017-11-25T07:54:25.213Z,40
2017-11-25T07:55:34.024Z,40
2017-11-25T07:56:42.834Z,40
2017-11-25T07:57:51.917Z,40
2017-11-25T07:59:00.457Z,45
2017-11-25T08:00:08.998Z,45
2017-11-25T08:01:17.810Z,45
2017-11-25T08:02:26.898Z,45
2017-11-25T08:03:35.437Z,50
2017-11-25T08:04:44.246Z,50
2017-11-25T08:05:52.785Z,50
2017-11-25T08:07:01.867Z,55
2017-11-25T08:08:10.947Z,60
2017-11-25T08:09:19.755Z,60
2017-11-25T08:10:28.566Z,65
2017-11-25T08:11:37.373Z,65
2017-11-25T08:12:45.911Z,70
2017-11-25T08:13:54.443Z,70
2017-11-25T08:15:03.524Z,75
2017-11-25T08:16:12.061Z,75
2017-11-25T08:17:21.149Z,80
2017-11-25T08:18:29.958Z,80
2017-11-25T08:19:38.502Z,80
2017-11-25T08:20:47.310Z,75
2017-11-25T08:21:56.114Z,75
2017-11-25T08:23:04.651Z,75
2017-11-25T08:24:14.014Z,75
2017-11-25T08:25:22.822Z,75
2017-11-25T08:26:31.915Z,75
2017-11-25T08:27:40.444Z,75
2017-11-25T08:28:48.982Z,75
2017-11-25T08:29:57.792Z,75
2017-11-25T08:31:06.877Z,75
2017-11-25T08:32:15.961Z,80
2017-11-25T08:33:24.500Z,80
2017-11-25T08:34:33.307Z,80
2017-11-25T08:35:42.394Z,80
2017-11-25T08:36:50.932Z,80
2017-11-25T08:37:59.468Z,80
2017-11-25T08:39:08.277Z,80
2017-11-25T08:40:16.818Z,80
2017-11-25T08:41:25.359Z,80
2017-11-25T08:42:34.168Z,75
2017-11-25T08:43:42.994Z,75
2017-11-25T08:44:51.533Z,80
2017-11-25T08:46:00.269Z,75
2017-11-25T08:47:08.806Z,75
2017-11-25T08:48:17.343Z,80
2017-11-25T08:49:25.882Z,80
2017-11-25T08:50:34.415Z,75
2017-11-25T08:51:44.267Z,75
2017-11-25T08:52:52.806Z,75
2017-11-25T08:54:01.633Z,75
2017-11-25T08:55:10.448Z,75
2017-11-25T08:56:18.992Z,75
2017-11-25T08:57:28.071Z,80
2017-11-25T08:58:36.610Z,80
2017-11-25T08:59:45.687Z,80
2017-11-25T09:00:54.497Z,75
2017-11-25T09:02:03.588Z,75
2017-11-25T09:03:12.946Z,75
2017-11-25T09:04:22.027Z,70
2017-11-25T09:05:30.833Z,70
2017-11-25T09:06:39.639Z,70
2017-11-25T09:07:48.989Z,70
2017-11-25T09:08:57.527Z,70
2017-11-25T09:10:06.339Z,70
2017-11-25T09:11:15.149Z,70
2017-11-25T09:12:23.694Z,75
2017-11-25T09:13:32.260Z,75
2017-11-25T09:14:41.586Z,80
2017-11-25T09:15:50.395Z,85
2017-11-25T09:16:58.931Z,85
2017-11-25T09:18:07.556Z,90
2017-11-25T09:19:16.141Z,90
2017-11-25T09:20:25.048Z,95
2017-11-25T09:21:33.615Z,100
2017-11-25T09:22:42.153Z,95
2017-11-25T09:23:50.964Z,100
2017-11-25T09:24:59.500Z,100
2017-11-25T09:26:08.309Z,100
2017-11-25T09:27:17.759Z,90
2017-11-25T09:28:27.019Z,90
2017-11-25T09:29:35.836Z,90
2017-11-25T09:30:44.649Z,95
2017-11-25T09:31:53.464Z,95
2017-11-25T09:33:02.547Z,90
2017-11-25T09:34:11.355Z,90
2017-11-25T09:35:19.890Z,100
2017-11-25T09:36:28.696Z,100
2017-11-25T09:37:37.503Z,100
2017-11-25T09:38:46.317Z,100
2017-11-25T09:39:55.405Z,100
2017-11-25T09:41:04.227Z,100
2017-11-25T09:42:13.083Z,100
2017-11-25T09:43:21.893Z,100
2017-11-25T09:44:30.697Z,105
2017-11-25T09:45:39.575Z,105
2017-11-25T09:46:48.654Z,105
2017-11-25T09:47:57.198Z,105
2017-11-25T09:49:06.012Z,105
2017-11-25T09:50:15.094Z,105
2017-11-25T09:51:23.632Z,105
2017-11-25T09:52:32.172Z,105
2017-11-25T09:53:40.977Z,105
2017-11-25T09:54:49.790Z,110
2017-11-25T09:55:58.600Z,110
2017-11-25T09:57:07.139Z,110
2017-11-25T09:58:16.035Z,110
2017-11-25T09:59:24.874Z,110
2017-11-25T10:00:33.427Z,110
2017-11-25T10:01:42.288Z,115
2017-11-25T10:02:50.851Z,120
2017-11-25T10:03:59.671Z,120
2017-11-25T10:05:08.547Z,120
2017-11-25T10:06:17.896Z,125
2017-11-25T10:07:27.245Z,125
2017-11-25T10:08:35.851Z,130
2017-11-25T10:09:44.707Z,130
2017-11-25T10:10:53.247Z,135
2017-11-25T10:12:02.061Z,135
2017-11-25T10:13:11.167Z,140
2017-11-25T10:14:20.257Z,145
2017-11-25T10:15:29.609Z,150
2017-11-25T10:16:38.148Z,150
2017-11-25T10:17:46.989Z,150
2017-11-25T10:18:56.079Z,150
2017-11-25T10:20:04.890Z,150
2017-11-25T10:21:13.426Z,155
2017-11-25T10:22:22.238Z,155
2017-11-25T10:23:31.049Z,160
2017-11-25T10:24:40.131Z,160
2017-11-25T10:25:48.721Z,165
2017-11-25T10:26:57.263Z,165
2017-11-25T10:28:06.349Z,165
2017-11-25T10:29:14.887Z,165
2017-11-25T10:30:23.427Z,165
2017-11-25T10:31:31.965Z,160
2017-11-25T10:32:40.776Z,155
2017-11-25T10:33:49.592Z,155
2017-11-25T10:34:58.673Z,145
2017-11-25T10:36:07.483Z,135
2017-11-25T10:37:16.566Z,135
2017-11-25T10:38:25.410Z,130
2017-11-25T10:39:34.222Z,130
2017-11-25T10:40:43.309Z,125
2017-11-25T10:41:52.450Z,120
2017-11-25T10:43:01.264Z,120
2017-11-25T10:44:09.803Z,120
2017-11-25T10:45:18.350Z,125
2017-11-25T10:46:27.229Z,130
2017-11-25T10:47:35.744Z,135
2017-11-25T10:48:44.576Z,120
2017-11-25T10:49:53.114Z,120
2017-11-25T10:51:01.656Z,120
2017-11-25T10:52:10.465Z,120
2017-11-25T10:53:19.006Z,125
2017-11-25T10:54:27.543Z,135
2017-11-25T10:55:36.632Z,140
2017-11-25T10:56:45.171Z,145
2017-11-25T10:57:53.980Z,150
2017-11-25T10:59:03.066Z,155
2017-11-25T11:00:11.875Z,165
2017-11-25T11:01:20.415Z,170
2017-11-25T11:02:29.224Z,180
2017-11-25T11:03:38.043Z,185
2017-11-25T11:04:46.856Z,190
2017-11-25T11:05:55.396Z,195
2017-11-25T11:07:04.489Z,195
2017-11-25T11:08:13.316Z,195
2017-11-25T11:09:22.110Z,185
2017-11-25T11:10:31.201Z,190
2017-11-25T11:11:39.738Z,185
2017-11-25T11:12:48.685Z,185
2017-11-25T11:13:57.775Z,180
2017-11-25T11:15:06.317Z,175
2017-11-25T11:16:15.130Z,155
2017-11-25T11:17:23.660Z,150
2017-11-25T11:18:32.748Z,145
2017-11-25T11:19:41.808Z,150
2017-11-25T11:20:51.235Z,160
2017-11-25T11:22:00.317Z,165
2017-11-25T11:23:09.497Z,160
2017-11-25T11:24:18.308Z,160
2017-11-25T11:25:27.684Z,165
2017-11-25T11:26:36.493Z,165
2017-11-25T11:27:45.558Z,170
2017-11-25T11:28:54.643Z,170
2017-11-25T11:30:03.453Z,170
2017-11-25T11:31:12.265Z,170
2017-11-25T11:32:20.807Z,170
2017-11-25T11:33:29.895Z,170
2017-11-25T11:34:38.760Z,170
2017-11-25T11:35:47.853Z,170
2017-11-25T11:36:56.957Z,175
2017-11-25T11:38:05.512Z,170
2017-11-25T11:39:14.320Z,170
2017-11-25T11:40:23.130Z,165
2017-11-25T11:41:31.954Z,165
2017-11-25T11:42:40.774Z,160
2017-11-25T11:43:49.586Z,160
2017-11-25T11:44:58.401Z,160
2017-11-25T11:46:07.214Z,155
2017-11-25T11:47:16.080Z,155
2017-11-25T11:48:24.896Z,150
2017-11-25T11:49:33.436Z,155
2017-11-25T11:50:42.526Z,150
2017-11-25T11:51:51.064Z,145
2017-11-25T11:52:59.893Z,140
2017-11-25T11:54:08.845Z,140
2017-11-25T11:55:18.089Z,135
2017-11-25T11:56:27.171Z,135
2017-11-25T11:57:36.253Z,135
2017-11-25T11:58:45.066Z,135
2017-11-25T11:59:53.874Z,135
2017-11-25T12:01:02.686Z,135
2017-11-25T12:02:11.512Z,135
2017-11-25T12:03:20.353Z,135
2017-11-25T12:04:29.461Z,140
2017-11-25T12:05:38.638Z,140
2017-11-25T12:06:47.177Z,145
2017-11-25T12:07:55.719Z,150
2017-11-25T12:09:04.826Z,150
2017-11-25T12:10:14.532Z,150
2017-11-25T12:11:23.613Z,150
2017-11-25T12:12:32.426Z,145
2017-11-25T12:13:41.435Z,140
2017-11-25T12:14:50.247Z,140
2017-11-25T12:15:59.062Z,135
2017-11-25T12:17:07.880Z,140
2017-11-25T12:18:16.967Z,140
2017-11-25T12:19:25.506Z,145
2017-11-25T12:20:34.053Z,145
2017-11-25T12:21:42.888Z,150
2017-11-25T12:22:52.019Z,150
2017-11-25T12:24:01.114Z,150
2017-11-25T12:25:09.948Z,150
2017-11-25T12:26:19.866Z,150
2017-11-25T12:27:28.951Z,150
2017-11-25T12:28:37.490Z,145
2017-11-25T12:29:46.297Z,145
2017-11-25T12:30:55.134Z,145
2017-11-25T12:32:03.758Z,145
2017-11-25T12:33:12.724Z,145
2017-11-25T12:34:21.714Z,140
2017-11-25T12:35:30.390Z,140
2017-11-25T12:36:39.613Z,135
2017-11-25T12:37:48.452Z,135
2017-11-25T12:38:57.003Z,140
2017-11-25T12:40:06.131Z,140
2017-11-25T12:41:14.963Z,140
2017-11-25T12:42:23.851Z,140
2017-11-25T12:43:32.477Z,140
2017-11-25T12:44:41.296Z,135
2017-11-25T12:45:50.134Z,135
2017-11-25T12:46:58.973Z,135
2017-11-25T12:48:07.521Z,135
2017-11-25T12:49:16.109Z,135
2017-11-25T12:50:24.929Z,130
2017-11-25T12:51:33.748Z,130
2017-11-25T12:52:42.429Z,125
2017-11-25T12:53:51.519Z,125
2017-11-25T12:55:00.338Z,125
2017-11-25T12:56:08.879Z,125
2017-11-25T12:57:18.205Z,125
2017-11-25T12:58:27.351Z,130
2017-11-25T12:59:35.891Z,135
2017-11-25T13:00:44.728Z,135
2017-11-25T13:01:53.810Z,140
2017-11-25T13:03:02.553Z,140
2017-11-25T13:04:11.653Z,140
2017-11-25T13:05:20.500Z,140
2017-11-25T13:06:29.043Z,140
2017-11-25T13:07:38.131Z,135
2017-11-25T13:08:47.001Z,135
2017-11-25T13:09:55.851Z,135
2017-11-25T13:11:04.676Z,135
2017-11-25T13:12:13.494Z,130
2017-11-25T13:13:22.575Z,130
2017-11-25T13:14:31.119Z,130
2017-11-25T13:15:39.946Z,125
2017-11-25T13:16:48.529Z,125
2017-11-25T13:17:57.075Z,125
2017-11-25T13:19:05.615Z,125
2017-11-25T13:20:14.157Z,120
2017-11-25T13:21:22.967Z,120
2017-11-25T13:22:31.792Z,120
2017-11-25T13:23:40.882Z,120
2017-11-25T13:24:49.421Z,120
2017-11-25T13:25:57.964Z,125
2017-11-25T13:27:06.781Z,125
2017-11-25T13:28:15.867Z,130
2017-11-25T13:29:24.683Z,130
2017-11-25T13:30:33.769Z,125
2017-11-25T13:31:42.576Z,120
2017-11-25T13:32:51.599Z,115
2017-11-25T13:34:00.219Z,110
2017-11-25T13:35:08.758Z,105
2017-11-25T13:36:17.296Z,100
2017-11-25T13:37:26.132Z,100
2017-11-25T13:38:35.212Z,95
2017-11-25T13:39:43.752Z,90
2017-11-25T13:40:52.840Z,90
2017-11-25T13:42:01.382Z,90
2017-11-25T13:43:10.494Z,90
2017-11-25T13:44:19.309Z,90
2017-11-25T13:45:27.862Z,90
2017-11-25T13:46:36.673Z,90
2017-11-25T13:47:45.755Z,90
2017-11-25T13:48:54.839Z,90
2017-11-25T13:50:03.651Z,90
2017-11-25T13:51:12.191Z,85
2017-11-25T13:52:21.000Z,85
2017-11-25T13:53:29.546Z,85
2017-11-25T13:54:38.635Z,80
2017-11-25T13:55:47.718Z,80
2017-11-25T13:56:56.532Z,75
2017-11-25T13:58:05.352Z,75
2017-11-25T13:59:14.444Z,75
2017-11-25T14:00:23.262Z,75
2017-11-25T14:01:31.801Z,80
2017-11-25T14:02:40.882Z,80
2017-11-25T14:03:49.420Z,75
2017-11-25T14:04:58.227Z,75
2017-11-25T14:06:06.766Z,75
2017-11-25T14:07:15.803Z,70
2017-11-25T14:08:24.657Z,70
2017-11-25T14:09:33.196Z,70
2017-11-25T14:10:42.004Z,65
2017-11-25T14:11:50.542Z,65
2017-11-25T14:12:59.079Z,65
2017-11-25T14:14:08.441Z,65
2017-11-25T14:15:17.127Z,65
2017-11-25T14:16:25.952Z,65
2017-11-25T14:17:34.510Z,65
2017-11-25T14:18:43.054Z,65
2017-11-25T14:19:51.592Z,65
2017-11-25T14:21:00.680Z,65
2017-11-25T14:22:09.225Z,65
2017-11-25T14:23:17.765Z,65
2017-11-25T14:24:26.588Z,60
2017-11-25T14:25:35.952Z,60
2017-11-25T14:26:44.491Z,60
2017-11-25T14:27:53.301Z,55
2017-11-25T14:29:01.934Z,55
2017-11-25T14:30:10.472Z,50
2017-11-25T14:31:19.286Z,50
2017-11-25T14:32:27.825Z,50
2017-11-25T14:33:36.921Z,45
2017-11-25T14:34:45.731Z,45
2017-11-25T14:35:54.545Z,40
2017-11-25T14:37:03.085Z,40
2017-11-25T14:38:12.169Z,40
2017-11-25T14:39:23.973Z,40
2017-11-25T14:40:32.790Z,40
2017-11-25T14:41:41.891Z,40
2017-11-25T14:42:50.435Z,40
2017-11-25T14:43:59.244Z,35
2017-11-25T14:45:08.064Z,35
2017-11-25T14:46:16.611Z,35
2017-11-25T14:47:25.424Z,30
2017-11-25T14:48:34.426Z,30
2017-11-25T14:49:42.963Z,30
2017-11-25T14:50:52.081Z,25
2017-11-25T14:52:01.163Z,30
2017-11-25T14:53:09.975Z,30
2017-11-25T14:54:18.797Z,30
2017-11-25T14:55:27.891Z,30
2017-11-25T14:56:36.739Z,30
2017-11-25T14:57:48.289Z,25
2017-11-25T14:58:57.646Z,20
2017-11-25T15:00:06.177Z,25
2017-11-25T15:01:14.997Z,25
2017-11-25T15:02:24.170Z,25
2017-11-25T15:03:32.979Z,25
2017-11-25T15:04:41.519Z,20
2017-11-25T15:05:50.328Z,20
2017-11-25T15:06:59.410Z,20
2017-11-25T15:08:08.495Z,20
2017-11-25T15:09:17.304Z,15
2017-11-25T15:10:25.847Z,15
2017-11-25T15:11:34.683Z,15
2017-11-25T15:12:43.390Z,15
2017-11-25T15:13:52.202Z,15
2017-11-25T15:15:00.749Z,15
2017-11-25T15:16:09.563Z,15
2017-11-25T15:17:18.189Z,15
2017-11-25T15:18:27.562Z,15
2017-11-25T15:19:36.369Z,10
2017-11-25T15:20:44.906Z,10
2017-11-25T15:21:53.443Z,10
2017-11-25T15:23:02.527Z,10
2017-11-25T15:24:11.337Z,5
2017-11-25T15:25:20.441Z,5
2017-11-25T15:26:29.270Z,5
2017-11-25T15:27:37.807Z,5
2017-11-25T15:28:46.618Z,5
2017-11-25T15:29:55.434Z,5
2017-11-25T15:31:04.533Z,5
2017-11-25T15:32:13.391Z,5
2017-11-25T15:33:21.932Z,5
2017-11-25T15:34:30.736Z,0
2017-11-25T15:35:39.276Z,0
2017-11-25T15:36:48.368Z,0
2017-11-25T15:37:57.749Z,0
2017-11-25T15:39:06.833Z,0
2017-11-25T15:40:16.184Z,0
2017-11-25T15:41:24.995Z,0
2017-11-25T15:42:33.532Z,0
2017-11-25T15:43:42.342Z,0
2017-11-25T15:44:51.162Z,0
2017-11-25T15:46:00.246Z,0
2017-11-25T15:47:08.792Z,0
2017-11-25T15:48:17.884Z,0
2017-11-25T15:49:26.421Z,0
2017-11-25T15:50:35.232Z,0
2017-11-25T15:51:43.775Z,0
2017-11-25T15:52:52.310Z,0
2017-11-25T15:54:01.121Z,0
2017-11-25T15:55:10.478Z,0
2017-11-25T15:56:19.565Z,0
2017-11-25T15:57:28.924Z,0
2017-11-25T15:58:37.455Z,0
2017-11-25T15:59:46.263Z,0
2017-11-25T16:00:54.798Z,0
2017-11-25T16:02:03.610Z,0
2017-11-25T16:03:12.418Z,0
2017-11-25T16:04:21.295Z,0
2017-11-25T16:05:29.834Z,0
2017-11-25T16:06:38.644Z,0
2017-11-25T16:07:47.284Z,0
2017-11-25T16:08:56.161Z,0
2017-11-25T16:10:05.076Z,0
2017-11-25T16:11:14.019Z,0
2017-11-25T16:12:22.632Z,0
2017-11-25T16:13:31.487Z,0
2017-11-25T16:14:40.363Z,0
2017-11-25T16:15:49.293Z,0
2017-11-25T16:16:58.130Z,0
2017-11-25T16:18:06.955Z,0
2017-11-25T16:19:15.849Z,0
2017-11-25T16:20:24.759Z,0
2017-11-25T16:21:33.662Z,0
2017-11-25T16:22:42.289Z,0
2017-11-25T16:23:51.308Z,0
2017-11-25T16:25:00.005Z,0
2017-11-25T16:26:08.688Z,0
2017-11-25T16:27:17.431Z,0
2017-11-25T16:28:26.022Z,0
2017-11-25T16:29:35.250Z,0
2017-11-25T16:30:44.204Z,0